sensor_id;sensor_type;location;lat;lon;timestamp;P1;durP1;ratioP1;P2;durP2;ratioP2
71570;SDS011;59407;42.682;23.322;2023-08-30T00:02:07;10.02;;;5.30;;
71570;SDS011;59407;42.682;23.322;2023-08-30T00:04:34;11.40;;;4.97;;
71570;SDS011;59407;42.682;23.322;2023-08-30T00:07:00;13.07;;;5.55;;
71570;SDS011;59407;42.682;23.322;2023-08-30T00:09:25;8.83;;;5.10;;
71570;SDS011;59407;42.682;23.322;2023-08-30T00:11:51;9.03;;;5.13;;
71570;SDS011;59407;42.682;23.322;2023-08-30T00:14:18;6.32;;;3.97;;
71570;SDS011;59407;42.682;23.322;2023-08-30T00:16:44;7.20;;;4.30;;
71570;SDS011;59407;42.682;23.322;2023-08-30T00:19:10;7.00;;;3.47;;
71570;SDS011;59407;42.682;23.322;2023-08-30T00:21:35;6.87;;;4.00;;
71570;SDS011;59407;42.682;23.322;2023-08-30T00:24:02;8.45;;;3.97;;
71570;SDS011;59407;42.682;23.322;2023-08-30T00:26:29;7.68;;;4.15;;
71570;SDS011;59407;42.682;23.322;2023-08-30T00:28:54;10.30;;;4.20;;
71570;SDS011;59407;42.682;23.322;2023-08-30T00:31:20;8.03;;;3.67;;
71570;SDS011;59407;42.682;23.322;2023-08-30T00:33:48;8.82;;;4.28;;
71570;SDS011;59407;42.682;23.322;2023-08-30T00:36:13;8.30;;;4.18;;
71570;SDS011;59407;42.682;23.322;2023-08-30T00:38:40;6.83;;;3.37;;
71570;SDS011;59407;42.682;23.322;2023-08-30T00:41:08;6.80;;;3.70;;
71570;SDS011;59407;42.682;23.322;2023-08-30T00:43:33;6.60;;;3.60;;
71570;SDS011;59407;42.682;23.322;2023-08-30T00:45:59;9.48;;;3.55;;
71570;SDS011;59407;42.682;23.322;2023-08-30T00:48:25;7.73;;;3.73;;
71570;SDS011;59407;42.682;23.322;2023-08-30T00:50:50;6.53;;;3.60;;
71570;SDS011;59407;42.682;23.322;2023-08-30T00:53:16;7.47;;;3.47;;
71570;SDS011;59407;42.682;23.322;2023-08-30T00:55:42;8.55;;;3.83;;
71570;SDS011;59407;42.682;23.322;2023-08-30T00:58:08;6.25;;;3.45;;
71570;SDS011;59407;42.682;23.322;2023-08-30T01:00:34;5.53;;;3.10;;
71570;SDS011;59407;42.682;23.322;2023-08-30T01:03:00;7.13;;;3.73;;
71570;SDS011;59407;42.682;23.322;2023-08-30T01:05:26;5.70;;;3.08;;
71570;SDS011;59407;42.682;23.322;2023-08-30T01:07:53;6.45;;;3.33;;
71570;SDS011;59407;42.682;23.322;2023-08-30T01:10:20;7.47;;;3.53;;
71570;SDS011;59407;42.682;23.322;2023-08-30T01:12:48;6.22;;;3.25;;
71570;SDS011;59407;42.682;23.322;2023-08-30T01:15:20;6.28;;;3.65;;
71570;SDS011;59407;42.682;23.322;2023-08-30T01:17:50;6.00;;;2.97;;
71570;SDS011;59407;42.682;23.322;2023-08-30T01:20:17;7.30;;;2.90;;
71570;SDS011;59407;42.682;23.322;2023-08-30T01:28:30;5.00;;;2.78;;
71570;SDS011;59407;42.682;23.322;2023-08-30T01:30:57;6.80;;;3.20;;
71570;SDS011;59407;42.682;23.322;2023-08-30T01:33:23;6.63;;;3.23;;
71570;SDS011;59407;42.682;23.322;2023-08-30T01:35:53;7.07;;;3.03;;
71570;SDS011;59407;42.682;23.322;2023-08-30T01:38:19;6.75;;;2.72;;
71570;SDS011;59407;42.682;23.322;2023-08-30T01:40:45;7.53;;;3.33;;
71570;SDS011;59407;42.682;23.322;2023-08-30T01:43:13;5.88;;;2.80;;
71570;SDS011;59407;42.682;23.322;2023-08-30T01:45:40;6.35;;;3.50;;
71570;SDS011;59407;42.682;23.322;2023-08-30T01:48:12;5.88;;;2.95;;
71570;SDS011;59407;42.682;23.322;2023-08-30T01:50:39;6.60;;;2.53;;
71570;SDS011;59407;42.682;23.322;2023-08-30T01:53:06;6.27;;;2.90;;
71570;SDS011;59407;42.682;23.322;2023-08-30T01:55:34;7.55;;;3.13;;
71570;SDS011;59407;42.682;23.322;2023-08-30T01:58:02;6.20;;;2.90;;
71570;SDS011;59407;42.682;23.322;2023-08-30T02:00:27;6.95;;;3.67;;
71570;SDS011;59407;42.682;23.322;2023-08-30T02:02:53;5.60;;;3.17;;
71570;SDS011;59407;42.682;23.322;2023-08-30T02:05:19;8.80;;;3.23;;
71570;SDS011;59407;42.682;23.322;2023-08-30T02:07:50;6.27;;;3.47;;
71570;SDS011;59407;42.682;23.322;2023-08-30T02:10:24;5.82;;;3.03;;
71570;SDS011;59407;42.682;23.322;2023-08-30T02:12:52;9.27;;;3.33;;
71570;SDS011;59407;42.682;23.322;2023-08-30T02:15:19;7.80;;;3.30;;
71570;SDS011;59407;42.682;23.322;2023-08-30T02:17:45;7.00;;;3.03;;
71570;SDS011;59407;42.682;23.322;2023-08-30T02:20:11;11.35;;;3.75;;
71570;SDS011;59407;42.682;23.322;2023-08-30T02:22:40;7.07;;;3.53;;
71570;SDS011;59407;42.682;23.322;2023-08-30T02:25:05;5.88;;;3.10;;
71570;SDS011;59407;42.682;23.322;2023-08-30T02:27:33;7.75;;;3.58;;
71570;SDS011;59407;42.682;23.322;2023-08-30T02:29:58;8.32;;;3.13;;
71570;SDS011;59407;42.682;23.322;2023-08-30T02:32:24;8.07;;;3.00;;
71570;SDS011;59407;42.682;23.322;2023-08-30T02:34:50;6.93;;;3.37;;
71570;SDS011;59407;42.682;23.322;2023-08-30T02:37:17;6.10;;;3.10;;
71570;SDS011;59407;42.682;23.322;2023-08-30T02:39:42;8.00;;;3.87;;
71570;SDS011;59407;42.682;23.322;2023-08-30T02:42:11;8.23;;;3.38;;
71570;SDS011;59407;42.682;23.322;2023-08-30T02:44:36;7.93;;;3.67;;
71570;SDS011;59407;42.682;23.322;2023-08-30T02:47:03;7.63;;;3.78;;
71570;SDS011;59407;42.682;23.322;2023-08-30T02:49:28;7.38;;;3.85;;
71570;SDS011;59407;42.682;23.322;2023-08-30T02:51:54;7.40;;;3.40;;
71570;SDS011;59407;42.682;23.322;2023-08-30T02:54:19;7.20;;;3.50;;
71570;SDS011;59407;42.682;23.322;2023-08-30T02:56:45;8.00;;;3.47;;
71570;SDS011;59407;42.682;23.322;2023-08-30T02:59:11;7.32;;;3.80;;
71570;SDS011;59407;42.682;23.322;2023-08-30T03:01:37;8.55;;;3.83;;
71570;SDS011;59407;42.682;23.322;2023-08-30T03:04:04;8.97;;;4.10;;
71570;SDS011;59407;42.682;23.322;2023-08-30T03:06:30;6.95;;;3.50;;
71570;SDS011;59407;42.682;23.322;2023-08-30T03:08:57;7.17;;;3.30;;
71570;SDS011;59407;42.682;23.322;2023-08-30T03:11:23;7.57;;;3.92;;
71570;SDS011;59407;42.682;23.322;2023-08-30T03:13:49;7.40;;;3.50;;
71570;SDS011;59407;42.682;23.322;2023-08-30T03:16:15;7.60;;;3.80;;
71570;SDS011;59407;42.682;23.322;2023-08-30T03:18:41;8.00;;;3.28;;
71570;SDS011;59407;42.682;23.322;2023-08-30T03:21:08;6.80;;;3.25;;
71570;SDS011;59407;42.682;23.322;2023-08-30T03:23:34;8.20;;;4.00;;
71570;SDS011;59407;42.682;23.322;2023-08-30T03:26:07;8.63;;;3.67;;
71570;SDS011;59407;42.682;23.322;2023-08-30T03:28:36;8.50;;;3.70;;
71570;SDS011;59407;42.682;23.322;2023-08-30T03:31:01;5.13;;;2.90;;
71570;SDS011;59407;42.682;23.322;2023-08-30T03:33:27;5.28;;;2.92;;
71570;SDS011;59407;42.682;23.322;2023-08-30T03:35:53;8.98;;;3.38;;
71570;SDS011;59407;42.682;23.322;2023-08-30T03:38:19;6.60;;;3.55;;
71570;SDS011;59407;42.682;23.322;2023-08-30T03:40:45;9.93;;;3.33;;
71570;SDS011;59407;42.682;23.322;2023-08-30T03:43:10;7.10;;;3.33;;
71570;SDS011;59407;42.682;23.322;2023-08-30T03:45:36;7.60;;;3.38;;
71570;SDS011;59407;42.682;23.322;2023-08-30T03:48:02;7.13;;;3.00;;
71570;SDS011;59407;42.682;23.322;2023-08-30T03:50:30;9.38;;;3.38;;
71570;SDS011;59407;42.682;23.322;2023-08-30T03:52:55;6.43;;;2.83;;
71570;SDS011;59407;42.682;23.322;2023-08-30T03:55:21;6.10;;;3.05;;
71570;SDS011;59407;42.682;23.322;2023-08-30T03:57:48;7.18;;;3.47;;
71570;SDS011;59407;42.682;23.322;2023-08-30T04:00:14;9.80;;;3.70;;
71570;SDS011;59407;42.682;23.322;2023-08-30T04:02:40;8.52;;;3.25;;
71570;SDS011;59407;42.682;23.322;2023-08-30T04:05:05;7.50;;;4.17;;
71570;SDS011;59407;42.682;23.322;2023-08-30T04:07:35;8.07;;;4.07;;
71570;SDS011;59407;42.682;23.322;2023-08-30T04:10:01;7.70;;;4.05;;
71570;SDS011;59407;42.682;23.322;2023-08-30T04:12:31;9.77;;;2.83;;
71570;SDS011;59407;42.682;23.322;2023-08-30T04:14:57;7.57;;;2.83;;
71570;SDS011;59407;42.682;23.322;2023-08-30T04:17:25;8.45;;;3.72;;
71570;SDS011;59407;42.682;23.322;2023-08-30T04:19:51;9.35;;;4.80;;
71570;SDS011;59407;42.682;23.322;2023-08-30T04:22:17;9.53;;;4.53;;
71570;SDS011;59407;42.682;23.322;2023-08-30T04:24:44;9.85;;;5.75;;
71570;SDS011;59407;42.682;23.322;2023-08-30T04:27:11;8.07;;;4.63;;
71570;SDS011;59407;42.682;23.322;2023-08-30T04:29:37;10.93;;;4.37;;
71570;SDS011;59407;42.682;23.322;2023-08-30T04:32:03;7.35;;;4.63;;
71570;SDS011;59407;42.682;23.322;2023-08-30T04:34:30;9.80;;;4.78;;
71570;SDS011;59407;42.682;23.322;2023-08-30T04:36:56;10.30;;;4.70;;
71570;SDS011;59407;42.682;23.322;2023-08-30T04:39:22;8.77;;;5.07;;
71570;SDS011;59407;42.682;23.322;2023-08-30T04:41:49;14.73;;;4.78;;
71570;SDS011;59407;42.682;23.322;2023-08-30T04:44:14;9.03;;;4.80;;
71570;SDS011;59407;42.682;23.322;2023-08-30T04:46:41;8.23;;;4.85;;
71570;SDS011;59407;42.682;23.322;2023-08-30T04:49:07;9.60;;;5.68;;
71570;SDS011;59407;42.682;23.322;2023-08-30T04:51:36;10.88;;;5.55;;
71570;SDS011;59407;42.682;23.322;2023-08-30T04:54:01;10.30;;;4.87;;
71570;SDS011;59407;42.682;23.322;2023-08-30T04:56:27;8.73;;;4.57;;
71570;SDS011;59407;42.682;23.322;2023-08-30T04:58:53;10.60;;;4.87;;
71570;SDS011;59407;42.682;23.322;2023-08-30T05:01:22;7.63;;;4.17;;
71570;SDS011;59407;42.682;23.322;2023-08-30T05:03:47;11.50;;;3.80;;
71570;SDS011;59407;42.682;23.322;2023-08-30T05:06:13;9.20;;;3.73;;
71570;SDS011;59407;42.682;23.322;2023-08-30T05:08:41;7.95;;;2.83;;
71570;SDS011;59407;42.682;23.322;2023-08-30T05:11:06;6.73;;;2.67;;
71570;SDS011;59407;42.682;23.322;2023-08-30T05:13:32;5.03;;;2.17;;
71570;SDS011;59407;42.682;23.322;2023-08-30T05:16:00;4.03;;;1.63;;
71570;SDS011;59407;42.682;23.322;2023-08-30T05:18:29;5.43;;;1.63;;
71570;SDS011;59407;42.682;23.322;2023-08-30T05:20:55;5.67;;;1.57;;
71570;SDS011;59407;42.682;23.322;2023-08-30T05:23:21;4.72;;;1.50;;
71570;SDS011;59407;42.682;23.322;2023-08-30T05:25:47;7.38;;;2.20;;
71570;SDS011;59407;42.682;23.322;2023-08-30T05:28:14;5.43;;;1.88;;
71570;SDS011;59407;42.682;23.322;2023-08-30T05:30:41;6.90;;;2.17;;
71570;SDS011;59407;42.682;23.322;2023-08-30T05:33:07;5.03;;;1.67;;
71570;SDS011;59407;42.682;23.322;2023-08-30T05:35:34;4.72;;;2.00;;
71570;SDS011;59407;42.682;23.322;2023-08-30T05:38:00;5.63;;;2.00;;
71570;SDS011;59407;42.682;23.322;2023-08-30T05:40:25;3.47;;;1.80;;
71570;SDS011;59407;42.682;23.322;2023-08-30T05:42:53;5.18;;;2.63;;
71570;SDS011;59407;42.682;23.322;2023-08-30T05:45:21;6.72;;;2.20;;
71570;SDS011;59407;42.682;23.322;2023-08-30T05:47:47;6.63;;;1.83;;
71570;SDS011;59407;42.682;23.322;2023-08-30T05:50:14;5.10;;;2.10;;
71570;SDS011;59407;42.682;23.322;2023-08-30T05:52:39;3.70;;;1.93;;
71570;SDS011;59407;42.682;23.322;2023-08-30T05:55:06;4.78;;;1.73;;
71570;SDS011;59407;42.682;23.322;2023-08-30T05:57:34;5.53;;;2.10;;
71570;SDS011;59407;42.682;23.322;2023-08-30T06:00:02;4.90;;;2.30;;
71570;SDS011;59407;42.682;23.322;2023-08-30T06:02:29;5.60;;;2.50;;
71570;SDS011;59407;42.682;23.322;2023-08-30T06:04:56;4.85;;;2.10;;
71570;SDS011;59407;42.682;23.322;2023-08-30T06:07:23;5.90;;;2.28;;
71570;SDS011;59407;42.682;23.322;2023-08-30T06:09:52;4.93;;;1.92;;
71570;SDS011;59407;42.682;23.322;2023-08-30T06:12:19;5.63;;;1.87;;
71570;SDS011;59407;42.682;23.322;2023-08-30T06:14:46;4.30;;;2.00;;
71570;SDS011;59407;42.682;23.322;2023-08-30T06:17:17;4.00;;;1.58;;
71570;SDS011;59407;42.682;23.322;2023-08-30T06:19:45;5.07;;;1.52;;
71570;SDS011;59407;42.682;23.322;2023-08-30T06:22:10;3.67;;;1.87;;
71570;SDS011;59407;42.682;23.322;2023-08-30T06:24:38;4.30;;;2.10;;
71570;SDS011;59407;42.682;23.322;2023-08-30T06:27:05;6.70;;;2.25;;
71570;SDS011;59407;42.682;23.322;2023-08-30T06:29:32;6.75;;;1.90;;
71570;SDS011;59407;42.682;23.322;2023-08-30T06:31:58;4.53;;;2.00;;
71570;SDS011;59407;42.682;23.322;2023-08-30T06:34:23;4.22;;;1.92;;
71570;SDS011;59407;42.682;23.322;2023-08-30T06:36:49;3.93;;;1.90;;
71570;SDS011;59407;42.682;23.322;2023-08-30T06:39:17;3.50;;;1.58;;
71570;SDS011;59407;42.682;23.322;2023-08-30T06:41:42;6.85;;;1.70;;
71570;SDS011;59407;42.682;23.322;2023-08-30T06:44:08;4.93;;;1.80;;
71570;SDS011;59407;42.682;23.322;2023-08-30T06:46:36;3.90;;;1.83;;
71570;SDS011;59407;42.682;23.322;2023-08-30T06:49:03;5.80;;;2.22;;
71570;SDS011;59407;42.682;23.322;2023-08-30T06:51:28;5.40;;;2.08;;
71570;SDS011;59407;42.682;23.322;2023-08-30T06:53:54;4.20;;;1.88;;
71570;SDS011;59407;42.682;23.322;2023-08-30T06:56:25;3.83;;;1.50;;
71570;SDS011;59407;42.682;23.322;2023-08-30T06:58:53;4.40;;;1.73;;
71570;SDS011;59407;42.682;23.322;2023-08-30T07:01:19;3.57;;;1.60;;
71570;SDS011;59407;42.682;23.322;2023-08-30T07:03:45;4.55;;;1.73;;
71570;SDS011;59407;42.682;23.322;2023-08-30T07:06:11;3.83;;;1.50;;
71570;SDS011;59407;42.682;23.322;2023-08-30T07:08:38;4.63;;;2.00;;
71570;SDS011;59407;42.682;23.322;2023-08-30T07:11:08;4.57;;;1.80;;
71570;SDS011;59407;42.682;23.322;2023-08-30T07:13:35;5.07;;;2.10;;
71570;SDS011;59407;42.682;23.322;2023-08-30T07:16:02;6.38;;;2.00;;
71570;SDS011;59407;42.682;23.322;2023-08-30T07:18:28;4.32;;;1.95;;
71570;SDS011;59407;42.682;23.322;2023-08-30T07:20:54;6.70;;;2.03;;
71570;SDS011;59407;42.682;23.322;2023-08-30T07:23:19;5.47;;;2.20;;
71570;SDS011;59407;42.682;23.322;2023-08-30T07:25:45;4.65;;;2.17;;
71570;SDS011;59407;42.682;23.322;2023-08-30T07:28:13;3.93;;;1.60;;
71570;SDS011;59407;42.682;23.322;2023-08-30T07:30:39;5.20;;;2.28;;
71570;SDS011;59407;42.682;23.322;2023-08-30T07:33:05;4.57;;;2.40;;
71570;SDS011;59407;42.682;23.322;2023-08-30T07:35:31;4.30;;;1.80;;
71570;SDS011;59407;42.682;23.322;2023-08-30T07:37:57;4.97;;;1.83;;
71570;SDS011;59407;42.682;23.322;2023-08-30T07:40:24;4.30;;;1.92;;
71570;SDS011;59407;42.682;23.322;2023-08-30T07:42:53;5.15;;;2.10;;
71570;SDS011;59407;42.682;23.322;2023-08-30T07:45:19;3.63;;;1.60;;
71570;SDS011;59407;42.682;23.322;2023-08-30T07:47:46;4.40;;;2.23;;
71570;SDS011;59407;42.682;23.322;2023-08-30T07:50:11;3.85;;;1.60;;
71570;SDS011;59407;42.682;23.322;2023-08-30T07:52:38;6.03;;;2.10;;
71570;SDS011;59407;42.682;23.322;2023-08-30T07:55:03;3.37;;;1.80;;
71570;SDS011;59407;42.682;23.322;2023-08-30T07:57:29;5.37;;;1.63;;
71570;SDS011;59407;42.682;23.322;2023-08-30T07:59:54;6.87;;;2.00;;
71570;SDS011;59407;42.682;23.322;2023-08-30T08:02:20;4.05;;;1.63;;
71570;SDS011;59407;42.682;23.322;2023-08-30T08:04:46;6.20;;;1.90;;
71570;SDS011;59407;42.682;23.322;2023-08-30T08:07:12;5.07;;;1.97;;
71570;SDS011;59407;42.682;23.322;2023-08-30T08:09:38;7.95;;;1.98;;
71570;SDS011;59407;42.682;23.322;2023-08-30T08:12:05;3.10;;;1.20;;
71570;SDS011;59407;42.682;23.322;2023-08-30T08:14:31;3.15;;;1.23;;
71570;SDS011;59407;42.682;23.322;2023-08-30T08:16:56;5.80;;;1.80;;
71570;SDS011;59407;42.682;23.322;2023-08-30T08:19:22;5.65;;;2.53;;
71570;SDS011;59407;42.682;23.322;2023-08-30T08:21:48;7.60;;;2.60;;
71570;SDS011;59407;42.682;23.322;2023-08-30T08:24:14;5.13;;;2.08;;
71570;SDS011;59407;42.682;23.322;2023-08-30T08:26:40;4.93;;;1.30;;
71570;SDS011;59407;42.682;23.322;2023-08-30T08:29:08;3.90;;;1.50;;
71570;SDS011;59407;42.682;23.322;2023-08-30T08:31:34;3.90;;;1.20;;
71570;SDS011;59407;42.682;23.322;2023-08-30T08:34:07;4.17;;;1.60;;
71570;SDS011;59407;42.682;23.322;2023-08-30T08:36:37;4.55;;;1.45;;
71570;SDS011;59407;42.682;23.322;2023-08-30T08:39:07;6.88;;;1.95;;
71570;SDS011;59407;42.682;23.322;2023-08-30T08:41:34;5.00;;;1.70;;
71570;SDS011;59407;42.682;23.322;2023-08-30T08:44:03;5.55;;;1.38;;
71570;SDS011;59407;42.682;23.322;2023-08-30T08:46:31;6.70;;;1.50;;
71570;SDS011;59407;42.682;23.322;2023-08-30T08:48:58;4.35;;;1.42;;
71570;SDS011;59407;42.682;23.322;2023-08-30T08:51:25;4.73;;;1.97;;
71570;SDS011;59407;42.682;23.322;2023-08-30T08:53:51;4.55;;;2.13;;
71570;SDS011;59407;42.682;23.322;2023-08-30T08:56:16;6.63;;;1.70;;
71570;SDS011;59407;42.682;23.322;2023-08-30T08:58:42;5.47;;;1.52;;
71570;SDS011;59407;42.682;23.322;2023-08-30T09:01:08;7.00;;;1.98;;
71570;SDS011;59407;42.682;23.322;2023-08-30T09:03:35;5.07;;;1.50;;
71570;SDS011;59407;42.682;23.322;2023-08-30T09:06:02;3.60;;;1.50;;
71570;SDS011;59407;42.682;23.322;2023-08-30T09:08:28;5.03;;;1.80;;
71570;SDS011;59407;42.682;23.322;2023-08-30T09:10:53;7.23;;;2.10;;
71570;SDS011;59407;42.682;23.322;2023-08-30T09:13:19;6.27;;;1.90;;
71570;SDS011;59407;42.682;23.322;2023-08-30T09:15:46;6.50;;;2.80;;
71570;SDS011;59407;42.682;23.322;2023-08-30T09:18:18;5.25;;;1.80;;
71570;SDS011;59407;42.682;23.322;2023-08-30T09:20:44;4.30;;;1.83;;
71570;SDS011;59407;42.682;23.322;2023-08-30T09:23:19;3.85;;;1.70;;
71570;SDS011;59407;42.682;23.322;2023-08-30T09:25:45;5.18;;;2.33;;
71570;SDS011;59407;42.682;23.322;2023-08-30T09:28:11;4.63;;;1.52;;
71570;SDS011;59407;42.682;23.322;2023-08-30T09:30:37;6.07;;;1.90;;
71570;SDS011;59407;42.682;23.322;2023-08-30T09:33:02;3.37;;;1.53;;
71570;SDS011;59407;42.682;23.322;2023-08-30T09:35:28;4.50;;;1.70;;
71570;SDS011;59407;42.682;23.322;2023-08-30T09:37:54;3.65;;;2.00;;
71570;SDS011;59407;42.682;23.322;2023-08-30T09:40:20;5.93;;;2.13;;
71570;SDS011;59407;42.682;23.322;2023-08-30T09:42:48;3.70;;;2.15;;
71570;SDS011;59407;42.682;23.322;2023-08-30T09:45:17;5.23;;;1.77;;
71570;SDS011;59407;42.682;23.322;2023-08-30T09:47:46;5.15;;;2.10;;
71570;SDS011;59407;42.682;23.322;2023-08-30T09:50:13;6.93;;;2.22;;
71570;SDS011;59407;42.682;23.322;2023-08-30T09:52:47;5.73;;;2.13;;
71570;SDS011;59407;42.682;23.322;2023-08-30T09:55:14;4.10;;;2.20;;
71570;SDS011;59407;42.682;23.322;2023-08-30T09:57:41;4.68;;;1.95;;
71570;SDS011;59407;42.682;23.322;2023-08-30T10:00:08;4.45;;;2.25;;
71570;SDS011;59407;42.682;23.322;2023-08-30T10:02:43;5.07;;;2.33;;
71570;SDS011;59407;42.682;23.322;2023-08-30T10:05:10;7.20;;;3.03;;
71570;SDS011;59407;42.682;23.322;2023-08-30T10:07:37;4.70;;;2.13;;
71570;SDS011;59407;42.682;23.322;2023-08-30T10:10:03;5.00;;;2.10;;
71570;SDS011;59407;42.682;23.322;2023-08-30T10:12:33;5.13;;;2.17;;
71570;SDS011;59407;42.682;23.322;2023-08-30T10:15:00;5.82;;;2.30;;
71570;SDS011;59407;42.682;23.322;2023-08-30T10:17:33;6.57;;;2.40;;
71570;SDS011;59407;42.682;23.322;2023-08-30T10:20:01;5.05;;;2.20;;
71570;SDS011;59407;42.682;23.322;2023-08-30T10:22:38;4.97;;;2.38;;
71570;SDS011;59407;42.682;23.322;2023-08-30T10:25:09;7.18;;;2.45;;
71570;SDS011;59407;42.682;23.322;2023-08-30T10:27:39;5.40;;;2.38;;
71570;SDS011;59407;42.682;23.322;2023-08-30T10:30:13;5.63;;;2.37;;
71570;SDS011;59407;42.682;23.322;2023-08-30T10:32:40;5.80;;;2.35;;
71570;SDS011;59407;42.682;23.322;2023-08-30T10:35:06;6.57;;;2.45;;
71570;SDS011;59407;42.682;23.322;2023-08-30T10:37:31;4.43;;;2.17;;
71570;SDS011;59407;42.682;23.322;2023-08-30T10:40:00;6.50;;;2.38;;
71570;SDS011;59407;42.682;23.322;2023-08-30T10:42:29;4.70;;;2.40;;
71570;SDS011;59407;42.682;23.322;2023-08-30T10:45:01;8.07;;;2.53;;
71570;SDS011;59407;42.682;23.322;2023-08-30T10:47:31;6.85;;;2.42;;
71570;SDS011;59407;42.682;23.322;2023-08-30T10:50:00;3.88;;;2.17;;
71570;SDS011;59407;42.682;23.322;2023-08-30T10:52:31;5.93;;;2.50;;
71570;SDS011;59407;42.682;23.322;2023-08-30T10:55:13;6.47;;;2.58;;
71570;SDS011;59407;42.682;23.322;2023-08-30T10:57:43;6.25;;;2.50;;
71570;SDS011;59407;42.682;23.322;2023-08-30T11:00:12;6.72;;;2.53;;
71570;SDS011;59407;42.682;23.322;2023-08-30T11:03:10;4.28;;;2.58;;
71570;SDS011;59407;42.682;23.322;2023-08-30T11:05:35;7.07;;;2.53;;
71570;SDS011;59407;42.682;23.322;2023-08-30T11:08:01;7.78;;;3.20;;
71570;SDS011;59407;42.682;23.322;2023-08-30T11:10:26;6.10;;;2.73;;
71570;SDS011;59407;42.682;23.322;2023-08-30T11:12:52;4.90;;;2.50;;
71570;SDS011;59407;42.682;23.322;2023-08-30T11:15:17;5.40;;;2.77;;
71570;SDS011;59407;42.682;23.322;2023-08-30T11:17:43;8.43;;;3.10;;
71570;SDS011;59407;42.682;23.322;2023-08-30T11:20:12;5.40;;;2.80;;
71570;SDS011;59407;42.682;23.322;2023-08-30T11:22:42;5.90;;;3.03;;
71570;SDS011;59407;42.682;23.322;2023-08-30T11:25:09;5.68;;;3.00;;
71570;SDS011;59407;42.682;23.322;2023-08-30T11:27:36;7.50;;;2.90;;
71570;SDS011;59407;42.682;23.322;2023-08-30T11:30:03;6.15;;;2.85;;
71570;SDS011;59407;42.682;23.322;2023-08-30T11:32:37;5.73;;;2.97;;
71570;SDS011;59407;42.682;23.322;2023-08-30T11:35:04;6.57;;;2.70;;
71570;SDS011;59407;42.682;23.322;2023-08-30T11:37:30;5.22;;;2.75;;
71570;SDS011;59407;42.682;23.322;2023-08-30T11:39:56;4.17;;;2.37;;
71570;SDS011;59407;42.682;23.322;2023-08-30T11:42:22;5.88;;;2.58;;
71570;SDS011;59407;42.682;23.322;2023-08-30T11:44:49;4.35;;;2.20;;
71570;SDS011;59407;42.682;23.322;2023-08-30T11:47:32;6.80;;;3.43;;
71570;SDS011;59407;42.682;23.322;2023-08-30T11:49:59;5.63;;;2.90;;
71570;SDS011;59407;42.682;23.322;2023-08-30T11:52:26;4.90;;;2.70;;
71570;SDS011;59407;42.682;23.322;2023-08-30T11:54:53;4.65;;;2.75;;
71570;SDS011;59407;42.682;23.322;2023-08-30T11:57:19;6.13;;;2.40;;
71570;SDS011;59407;42.682;23.322;2023-08-30T11:59:45;4.47;;;2.23;;
71570;SDS011;59407;42.682;23.322;2023-08-30T12:02:12;4.38;;;2.35;;
71570;SDS011;59407;42.682;23.322;2023-08-30T12:04:42;8.40;;;3.40;;
71570;SDS011;59407;42.682;23.322;2023-08-30T12:07:08;4.95;;;2.83;;
71570;SDS011;59407;42.682;23.322;2023-08-30T12:09:36;6.32;;;3.35;;
71570;SDS011;59407;42.682;23.322;2023-08-30T12:12:19;7.30;;;3.30;;
71570;SDS011;59407;42.682;23.322;2023-08-30T12:14:54;6.72;;;2.70;;
71570;SDS011;59407;42.682;23.322;2023-08-30T12:17:21;8.30;;;2.78;;
71570;SDS011;59407;42.682;23.322;2023-08-30T12:19:58;7.27;;;2.83;;
71570;SDS011;59407;42.682;23.322;2023-08-30T12:22:35;6.18;;;2.90;;
71570;SDS011;59407;42.682;23.322;2023-08-30T12:25:03;6.73;;;3.00;;
71570;SDS011;59407;42.682;23.322;2023-08-30T12:27:29;6.43;;;3.00;;
71570;SDS011;59407;42.682;23.322;2023-08-30T12:29:56;5.00;;;2.30;;
71570;SDS011;59407;42.682;23.322;2023-08-30T12:32:22;7.78;;;2.80;;
71570;SDS011;59407;42.682;23.322;2023-08-30T12:34:47;5.90;;;2.80;;
71570;SDS011;59407;42.682;23.322;2023-08-30T12:37:13;6.88;;;3.25;;
71570;SDS011;59407;42.682;23.322;2023-08-30T12:39:38;7.33;;;3.87;;
71570;SDS011;59407;42.682;23.322;2023-08-30T12:42:05;6.13;;;2.83;;
71570;SDS011;59407;42.682;23.322;2023-08-30T12:44:31;6.57;;;2.70;;
71570;SDS011;59407;42.682;23.322;2023-08-30T12:46:57;6.95;;;3.00;;
71570;SDS011;59407;42.682;23.322;2023-08-30T12:49:23;6.50;;;2.40;;
71570;SDS011;59407;42.682;23.322;2023-08-30T12:51:49;6.50;;;2.67;;
71570;SDS011;59407;42.682;23.322;2023-08-30T12:54:14;6.33;;;2.40;;
71570;SDS011;59407;42.682;23.322;2023-08-30T12:56:39;4.90;;;2.40;;
71570;SDS011;59407;42.682;23.322;2023-08-30T12:59:05;7.28;;;2.20;;
71570;SDS011;59407;42.682;23.322;2023-08-30T13:01:33;6.18;;;2.28;;
71570;SDS011;59407;42.682;23.322;2023-08-30T13:03:58;6.03;;;2.53;;
71570;SDS011;59407;42.682;23.322;2023-08-30T13:06:24;5.73;;;2.43;;
71570;SDS011;59407;42.682;23.322;2023-08-30T13:09:02;5.47;;;2.13;;
71570;SDS011;59407;42.682;23.322;2023-08-30T13:11:28;6.18;;;2.25;;
71570;SDS011;59407;42.682;23.322;2023-08-30T13:13:57;6.60;;;2.30;;
71570;SDS011;59407;42.682;23.322;2023-08-30T13:16:23;6.70;;;2.00;;
71570;SDS011;59407;42.682;23.322;2023-08-30T13:18:51;5.90;;;1.63;;
71570;SDS011;59407;42.682;23.322;2023-08-30T13:21:17;5.00;;;1.87;;
71570;SDS011;59407;42.682;23.322;2023-08-30T13:23:42;5.97;;;1.87;;
71570;SDS011;59407;42.682;23.322;2023-08-30T13:26:10;5.53;;;1.98;;
71570;SDS011;59407;42.682;23.322;2023-08-30T13:28:35;4.50;;;1.90;;
71570;SDS011;59407;42.682;23.322;2023-08-30T13:31:03;3.38;;;1.50;;
71570;SDS011;59407;42.682;23.322;2023-08-30T13:33:32;5.57;;;2.00;;
71570;SDS011;59407;42.682;23.322;2023-08-30T13:35:58;4.15;;;1.75;;
71570;SDS011;59407;42.682;23.322;2023-08-30T13:38:28;4.38;;;2.15;;
71570;SDS011;59407;42.682;23.322;2023-08-30T13:40:58;4.00;;;1.60;;
71570;SDS011;59407;42.682;23.322;2023-08-30T13:43:29;5.65;;;1.70;;
71570;SDS011;59407;42.682;23.322;2023-08-30T13:45:59;4.97;;;1.70;;
71570;SDS011;59407;42.682;23.322;2023-08-30T13:48:25;4.15;;;1.45;;
71570;SDS011;59407;42.682;23.322;2023-08-30T13:50:51;3.85;;;1.42;;
71570;SDS011;59407;42.682;23.322;2023-08-30T13:53:17;4.53;;;1.80;;
71570;SDS011;59407;42.682;23.322;2023-08-30T13:55:46;5.25;;;1.77;;
71570;SDS011;59407;42.682;23.322;2023-08-30T13:58:14;5.13;;;1.80;;
71570;SDS011;59407;42.682;23.322;2023-08-30T14:00:44;5.38;;;1.70;;
71570;SDS011;59407;42.682;23.322;2023-08-30T14:03:11;4.38;;;1.40;;
71570;SDS011;59407;42.682;23.322;2023-08-30T14:05:38;5.93;;;1.47;;
71570;SDS011;59407;42.682;23.322;2023-08-30T14:08:25;4.22;;;1.52;;
71570;SDS011;59407;42.682;23.322;2023-08-30T14:10:51;3.97;;;1.40;;
71570;SDS011;59407;42.682;23.322;2023-08-30T14:13:17;3.63;;;1.60;;
71570;SDS011;59407;42.682;23.322;2023-08-30T14:15:45;4.25;;;1.60;;
71570;SDS011;59407;42.682;23.322;2023-08-30T14:18:10;4.83;;;1.30;;
71570;SDS011;59407;42.682;23.322;2023-08-30T14:20:37;5.00;;;1.38;;
71570;SDS011;59407;42.682;23.322;2023-08-30T14:23:03;5.03;;;1.42;;
71570;SDS011;59407;42.682;23.322;2023-08-30T14:25:29;3.00;;;1.23;;
71570;SDS011;59407;42.682;23.322;2023-08-30T14:27:56;4.93;;;1.50;;
71570;SDS011;59407;42.682;23.322;2023-08-30T14:30:21;3.15;;;1.20;;
71570;SDS011;59407;42.682;23.322;2023-08-30T14:32:48;4.85;;;1.48;;
71570;SDS011;59407;42.682;23.322;2023-08-30T14:35:14;5.87;;;1.77;;
71570;SDS011;59407;42.682;23.322;2023-08-30T14:37:40;4.95;;;1.48;;
71570;SDS011;59407;42.682;23.322;2023-08-30T14:40:06;3.90;;;1.20;;